x

West Lake Ontario - Grimsby (45139) Wave Buoy

12:00pm - Sat 10th Dec 2016 All times are CST. -6 hours from GMT.

  • Sig Wave height 2.3ft
  • Peak Period 4s
  • Wind
    22mph, 27mph gusts
  • Sea Temp 40°f
  • Air Temp 31°f
  • Sea Pressure 1027.5mb
  • West Lake Ontario - Grimsby
  • West Lake Ontario - Grimsby

More Historic Weather Station data

Upgrade to MSW Pro to gain access to the past 30 days of data for over 8000 Wavebouys and Weather Stations around the globe.

Join Pro

Comparision Forecast

View Surf forecast
   
Sat 12/10 12:00pm 2.5ft 4s 22 27 mph 1027.5mb 40f 31f
11:00am 2.5ft 4s 22 27 mph 1027.7mb 40f 31f
10:00am 2ft 3s 22 27 mph 1028mb 40f 30f
9:00am 1.3ft 3s 20 22 mph 1028.8mb 40f 30f
8:00am 1ft 3s 13 20 mph 1028.6mb 40f 29f
7:00am 0.7ft 2s 13 16 mph 1028.5mb 40f 29f
6:00am 0.7ft 2s 13 18 mph 1028.5mb 40f 29f
5:00am 0.7ft 2s 7 9 mph 1028.3mb 40f 28f
4:00am 0.7ft 2s 9 11 mph 1028mb 40f 28f
3:00am 0.7ft 2s 7 9 mph 1028mb 40f 28f
2:00am 0.7ft 2s 9 13 mph 1027.9mb 40f 28f
1:00am 0.7ft 2s 11 13 mph 1027.9mb 40f 29f
12:00am 0.3ft 2s 11 13 mph 1027.8mb 40f 28f
Fri 12/09 11:00pm 0.7ft 2s 9 11 mph 1027.8mb 40f 29f
10:00pm 1ft 2s 7 11 mph 1028mb 40f 29f
9:00pm 1.3ft 2s 9 11 mph 1027.9mb 40f 29f
8:00pm 1ft 3s 11 16 mph 1027.9mb 40f 29f
7:00pm 1.3ft 3s 13 18 mph 1028mb 40f 30f
6:00pm 1ft 2s 13 18 mph 1027.7mb 40f 30f
5:00pm 1ft 3s 13 18 mph 1027.4mb 40f 30f
4:00pm 1.6ft 3s 11 16 mph 1027.1mb 40f 31f
3:00pm 1.6ft 3s 13 20 mph 1026.6mb 40f 31f
2:00pm 1.6ft 3s 18 22 mph 1026mb 40f 31f
1:00pm 2ft 3s 16 22 mph 1025.3mb 40f 31f
12:00pm 1.3ft 3s 20 22 mph 1024.9mb 40f 31f
11:00am 1ft 2s 18 22 mph 1025.1mb 40f 31f
10:00am 0.7ft 2s 9 13 mph 1025.9mb 40f 29f
9:00am 1ft 2s 7 9 mph 1026.4mb 40f 27f
8:00am 1.3ft 3s 9 13 mph 1025.5mb 40f 27f
6:00am 2ft 3s 18 25 mph 1023.4mb 40f 28f
5:00am 2ft 3s 22 29 mph 1022.3mb 40f 30f
4:00am 2ft 3s 20 27 mph 1021.8mb 40f 30f
3:00am 2ft 3s 20 25 mph 1021.3mb 40f 31f
2:00am 1.6ft 3s 20 25 mph 1020.7mb 40f 31f
12:00am 1.6ft 3s 20 25 mph 1019.3mb 40f 33f
Thu 12/08 11:00pm 2ft 3s 18 22 mph 1018.6mb 41f 33f
10:00pm 2.5ft 4s 20 25 mph 1018.4mb 41f 32f
9:00pm 2.5ft 4s 27 31 mph 1017.4mb 41f 31f
8:00pm 3ft 4s 27 31 mph 1017.1mb 41f 32f
7:00pm 2.5ft 3s 29 34 mph 1016.4mb 40f 31f
6:00pm 2.5ft 4s 27 31 mph 1016.3mb 40f 31f
5:00pm 2.5ft 4s 27 34 mph 1016.1mb 40f 31f
4:00pm 2.5ft 3s 27 36 mph 1015.8mb 40f 32f
3:00pm 2.5ft 3s 25 31 mph 1015.7mb 40f 32f
2:00pm 2.5ft 4s 25 31 mph 1015.2mb 41f 32f
1:00pm 2.5ft 4s 25 29 mph 1015mb 41f 32f
12:00pm 3ft 4s 27 36 mph 1014.4mb 41f 31f
11:00am 2.5ft 4s 27 36 mph 1014.3mb 41f 32f
10:00am 2.5ft 3s 25 29 mph 1014.5mb 41f 33f
9:00am 2ft 3s 22 27 mph 1014.7mb 41f 34f
8:00am 2ft 3s 22 27 mph 1014.1mb 41f 34f
7:00am 1.6ft 3s 22 27 mph 1013.9mb 41f 34f
6:00am 1.3ft 3s 20 25 mph 1013.6mb 41f 34f
5:00am 1.3ft 3s 20 25 mph 1013.3mb 41f 34f
4:00am 1.6ft 3s 20 25 mph 1012.9mb 41f 34f
3:00am 1.6ft 3s 22 27 mph 1013.1mb 41f 34f
2:00am 1.6ft 3s 20 25 mph 1013.6mb 41f 34f
1:00am 1.6ft 3s 20 25 mph 1014.1mb 41f 35f
12:00am 1.6ft 3s 22 27 mph 1013.9mb 41f 35f
Wed 12/07 11:00pm 1.6ft 3s 20 25 mph 1014.2mb 41f 35f
10:00pm 1.6ft 3s 18 22 mph 1014.2mb 41f 36f
9:00pm 1.6ft 3s 20 22 mph 1014.5mb 41f 37f
8:00pm 1.3ft 3s 20 25 mph 1014.6mb 41f 37f
7:00pm 1ft 3s 16 20 mph 1015.1mb 41f 37f
6:00pm 1ft 2s 16 20 mph 1015.3mb 41f 37f
5:00pm 1ft 3s 18 22 mph 1015.4mb 41f 38f
4:00pm 1.3ft 3s 16 20 mph 1015.2mb 41f 39f
3:00pm 1.3ft 3s 18 22 mph 1014.6mb 41f 40f
2:00pm 1.3ft 3s 18 20 mph 1014.8mb 41f 40f
1:00pm 2ft 3s 16 20 mph 1015mb 41f 38f
12:00pm 2ft 3s 20 27 mph 1014.8mb 41f 38f
11:00am 2.5ft 3s 22 27 mph 1014.7mb 41f 37f
10:00am 2.5ft 4s 22 27 mph 1015mb 41f 37f
9:00am 2ft 3s 22 29 mph 1015.3mb 41f 37f
8:00am 2ft 3s 20 25 mph 1015mb 41f 37f
7:00am 2ft 4s 22 27 mph 1014.1mb 41f 37f
6:00am 2ft 3s 20 27 mph 1013.3mb 41f 38f
5:00am 2ft 6s 20 25 mph 1012.7mb 41f 39f
4:00am 2.5ft 6s 16 20 mph 1011.7mb 41f 40f
3:00am 2.5ft 6s 20 25 mph 1010.9mb 41f 40f
2:00am 2.5ft 6s 18 22 mph 1009.8mb 41f 40f
1:00am 2.5ft 6s 9 11 mph 1009mb 41f 39f
12:00am 3ft 6s 4 7 mph 1008mb 41f 38f
Tue 12/06 11:00pm 3.5ft 6s 4 7 mph 1008.1mb 41f 38f
10:00pm 3.5ft 6s 4 7 mph 1008mb 41f 37f
9:00pm 3.5ft 6s 9
mph
1008mb 41f 37f
8:00pm 3.5ft 5s 13 16 mph 1008mb 41f 37f